D90 weather

Mancelona Municipal Airport
Mancelona, Michigan, United States

Public forecast

Using degrees Fahrenheit for public forecast. Weather courtesy of forecast.io.

Closest aviation weather report (METAR) to Mancelona Municipal Airport

Closest report is Antrim County Airport, 6.8 nm (12.5 km) NW. Retrieved 2019/10/14 11:39 UTC (6 minutes ago):

KACB 141139Z AUTO 00000KT 10SM SCT022 BKN034 OVC044 05/02 A2987 RMK AO2 T00500023

Closest aviation forecast (TAF) to Mancelona Municipal Airport

Closest forecast is Cherry Capital Airport, 24.6 nm (45.5 km) WSW. Retrieved 2019/10/14 06:24 UTC (5 hours ago):

TAF KTVC 140521Z 1406/1506 23009KT P6SM VCSH SCT035 FM140700 25008KT P6SM VCSH BKN035 FM141800 26010KT P6SM BKN050 FM142200 24009KT P6SM BKN090 FM150200 21006KT P6SM SCT080